Time;durP1;ratioP1;P1;durP2;ratioP2;P2;SDS_P1;SDS_P2;PMS_P1;PMS_P2;Temp;Humidity;BMP_temperature;BMP_pressure;BME280_temperature;BME280_humidity;BME280_pressure;Samples;Min_cycle;Max_cycle;Signal;HPM_P1;HPM_P2
2023/05/30 00:01:07;;;;;;;;;;;;;;;22.41;47.32;98118.44;5049053;28;19926;-70
2023/05/30 00:03:35;;;;;;;;;;;;;;;22.72;46.85;98113.38;5037613;28;19925;-70
2023/05/30 00:06:01;;;;;;;;;;;;;;;22.55;47.24;98106.16;5040830;28;19952;-70
2023/05/30 00:08:28;;;;;;;;;;;;;;;22.31;47.22;98118.88;5049003;28;19927;-72
2023/05/30 00:10:56;;;;;;;;;;;;;;;22.45;47.17;98122.91;5041349;28;19949;-71
2023/05/30 00:13:22;;;;;;;;;;;;;;;22.68;46.66;98117.91;5042600;28;20049;-71
2023/05/30 00:15:49;;;;;;;;;;;;;;;22.60;46.84;98122.28;5041545;28;19925;-71
2023/05/30 00:18:15;;;;;;;;;;;;;;;22.17;47.52;98115.63;5043903;28;19925;-71
2023/05/30 00:20:44;;;;;;;;;;;;;;;21.82;48.67;98123.22;5037814;28;19948;-71
2023/05/30 00:23:10;;;;;;;;;;;;;;;21.17;49.51;98121.84;5046445;28;19932;-71
2023/05/30 00:25:39;;;;;;;;;;;;;;;21.90;48.68;98119.69;5039145;28;19925;-71
2023/05/30 00:28:07;;;;;;;;;;;;;;;22.31;47.84;98114.22;5041577;28;19928;-71
2023/05/30 00:30:35;;;;;;;;;;;;;;;22.50;47.17;98130.03;5046906;28;19922;-71
2023/05/30 00:33:02;;;;;;;;;;;;;;;22.67;47.31;98121.75;5042925;28;19925;-71
2023/05/30 00:35:28;;;;;;;;;;;;;;;22.75;47.00;98120.84;5040817;28;19932;-71
2023/05/30 00:37:55;;;;;;;;;;;;;;;22.82;46.73;98112.13;5042214;28;19980;-71
2023/05/30 00:40:21;;;;;;;;;;;;;;;22.84;46.99;98120.78;5043383;28;19925;-71
2023/05/30 00:42:47;;;;;;;;;;;;;;;22.88;46.70;98122.47;5048074;28;19925;-71
2023/05/30 00:45:15;;;;;;;;;;;;;;;22.87;46.93;98120.09;5051441;28;19932;-71
2023/05/30 00:47:42;;;;;;;;;;;;;;;22.88;46.99;98122.47;5040747;28;19925;-71
2023/05/30 00:50:08;;;;;;;;;;;;;;;22.88;47.01;98121.69;5048693;28;20663;-71
2023/05/30 00:52:35;;;;;;;;;;;;;;;22.88;46.77;98121.69;5040621;28;19921;-72
2023/05/30 00:55:03;;;;;;;;;;;;;;;22.88;47.06;98122.47;5050000;28;19925;-72
2023/05/30 00:57:30;;;;;;;;;;;;;;;22.86;47.10;98116.59;5036761;28;20528;-72
2023/05/30 00:59:57;;;;;;;;;;;;;;;22.82;46.93;98118.38;5056676;28;19921;-71
2023/05/30 01:02:25;;;;;;;;;;;;;;;22.82;47.03;98123.03;5044735;28;19937;-71
2023/05/30 01:04:51;;;;;;;;;;;;;;;22.79;47.40;98118.25;5039827;28;19933;-71
2023/05/30 01:07:18;;;;;;;;;;;;;;;22.78;47.42;98117.47;5048710;28;20013;-71
2023/05/30 01:09:45;;;;;;;;;;;;;;;22.81;47.20;98124.19;5044561;28;19932;-72
2023/05/30 01:12:14;;;;;;;;;;;;;;;22.80;47.22;98114.41;5039383;28;19926;-71
2023/05/30 01:14:44;;;;;;;;;;;;;;;22.74;47.42;98121.22;5040813;28;19932;-71
2023/05/30 01:17:14;;;;;;;;;;;;;;;22.75;47.41;98118.13;5050733;28;19929;-71
2023/05/30 01:19:54;;;;;;;;;;;;;;;22.74;47.54;98110.31;5044633;28;19926;-71
2023/05/30 01:22:22;;;;;;;;;;;;;;;22.73;47.72;98106.78;5043174;28;19925;-71
2023/05/30 01:24:56;;;;;;;;;;;;;;;22.71;47.51;98108.28;5041247;28;20309;-71
2023/05/30 01:27:26;;;;;;;;;;;;;;;22.69;47.69;98107.78;5041426;28;19921;-72
2023/05/30 01:29:55;;;;;;;;;;;;;;;22.66;47.96;98113.91;5055266;28;19925;-71
2023/05/30 01:32:22;;;;;;;;;;;;;;;22.63;47.98;98106.38;5040897;28;19925;-71
2023/05/30 01:34:49;;;;;;;;;;;;;;;22.58;48.00;98110.94;5045203;28;20381;-71
2023/05/30 01:37:15;;;;;;;;;;;;;;;22.57;48.22;98112.06;5042247;28;19945;-71
2023/05/30 01:39:42;;;;;;;;;;;;;;;22.57;48.09;98111.25;5043967;28;19925;-72
2023/05/30 01:42:13;;;;;;;;;;;;;;;22.62;47.94;98113.78;5045100;28;19933;-71
2023/05/30 01:44:45;;;;;;;;;;;;;;;22.61;48.02;98104.00;5045525;28;19929;-71
2023/05/30 01:47:16;;;;;;;;;;;;;;;22.60;48.31;98103.22;5042267;28;19932;-72
2023/05/30 01:49:46;;;;;;;;;;;;;;;22.60;48.04;98105.94;5043397;28;19932;-72
2023/05/30 01:52:17;;;;;;;;;;;;;;;22.60;48.21;98103.22;5043623;28;19925;-72
2023/05/30 01:54:45;;;;;;;;;;;;;;;22.57;48.44;98100.38;5046427;28;19925;-71
2023/05/30 01:57:13;;;;;;;;;;;;;;;22.56;48.32;98104.25;5044271;28;19926;-71
2023/05/30 01:59:40;;;;;;;;;;;;;;;22.52;48.53;98097.88;5038996;28;19926;-71
2023/05/30 02:02:07;;;;;;;;;;;;;;;22.56;48.59;98102.28;5048287;28;19936;-71
2023/05/30 02:04:35;;;;;;;;;;;;;;;22.52;48.72;98106.03;5038759;28;19932;-72
2023/05/30 02:07:01;;;;;;;;;;;;;;;22.51;48.54;98101.72;5048615;28;19921;-72
2023/05/30 02:09:28;;;;;;;;;;;;;;;22.43;48.85;98095.25;5049112;28;19932;-72
2023/05/30 02:11:54;;;;;;;;;;;;;;;22.41;49.25;98097.47;5044092;28;19929;-72
2023/05/30 02:14:22;;;;;;;;;;;;;;;22.41;49.05;98097.47;5041221;28;19921;-72
2023/05/30 02:16:48;;;;;;;;;;;;;;;22.41;49.26;98097.47;5043325;28;19925;-72
2023/05/30 02:19:14;;;;;;;;;;;;;;;22.29;49.18;98102.88;5044318;28;19929;-72
2023/05/30 02:21:42;;;;;;;;;;;;;;;22.28;49.47;98092.34;5046741;28;19932;-71
2023/05/30 02:24:08;;;;;;;;;;;;;;;22.22;49.61;98099.13;5041311;28;19921;-71
2023/05/30 02:26:35;;;;;;;;;;;;;;;22.16;49.58;98095.78;5047673;28;19925;-72
2023/05/30 02:29:02;;;;;;;;;;;;;;;22.22;49.49;98096.41;5042817;28;19932;-71
2023/05/30 02:31:28;;;;;;;;;;;;;;;22.26;49.68;98089.94;5048142;28;19936;-72
2023/05/30 02:33:55;;;;;;;;;;;;;;;22.28;49.58;98090.41;5045967;28;19933;-71
2023/05/30 02:36:21;;;;;;;;;;;;;;;22.29;49.69;98097.44;5041227;28;19925;-72
2023/05/30 02:38:49;;;;;;;;;;;;;;;22.26;49.64;98081.78;5051801;28;19971;-71
2023/05/30 02:41:15;;;;;;;;;;;;;;;22.25;49.70;98093.78;5046970;28;19928;-71
2023/05/30 02:43:42;;;;;;;;;;;;;;;22.25;49.70;98093.78;5039647;28;19936;-71
2023/05/30 02:46:08;;;;;;;;;;;;;;;22.00;50.08;98090.16;5049141;28;20593;-72
2023/05/30 02:48:34;;;;;;;;;;;;;;;21.99;50.16;98093.22;5043790;28;19936;-72
2023/05/30 02:51:01;;;;;;;;;;;;;;;21.97;50.12;98103.66;5043688;28;19948;-72
2023/05/30 02:53:27;;;;;;;;;;;;;;;21.70;50.85;98106.84;5038669;28;20005;-71
2023/05/30 02:55:56;;;;;;;;;;;;;;;21.89;50.34;98101.78;5050086;28;19936;-71
2023/05/30 02:58:22;;;;;;;;;;;;;;;21.99;50.33;98096.75;5047162;28;19925;-71
2023/05/30 03:00:49;;;;;;;;;;;;;;;22.02;50.24;98095.28;5046138;28;19925;-71
2023/05/30 03:03:15;;;;;;;;;;;;;;;22.04;50.22;98093.03;5040844;28;19952;-71
2023/05/30 03:05:42;;;;;;;;;;;;;;;22.08;50.22;98099.41;5060484;28;19926;-71
2023/05/30 03:08:08;;;;;;;;;;;;;;;22.06;50.03;98109.81;5046432;28;19925;-72
2023/05/30 03:10:34;;;;;;;;;;;;;;;22.05;50.28;98105.50;5043066;28;20303;-71
2023/05/30 03:13:02;;;;;;;;;;;;;;;22.06;50.19;98107.09;5042467;28;19925;-71
2023/05/30 03:15:30;;;;;;;;;;;;;;;22.03;50.31;98107.75;5042283;28;19925;-71
2023/05/30 03:17:57;;;;;;;;;;;;;;;22.03;50.15;98113.22;5044564;28;19927;-71
2023/05/30 03:20:24;;;;;;;;;;;;;;;21.99;50.60;98115.78;5039552;28;19933;-71
2023/05/30 03:22:50;;;;;;;;;;;;;;;21.98;50.58;98105.22;5042176;28;19925;-71
2023/05/30 03:25:17;;;;;;;;;;;;;;;21.93;50.57;98113.59;5058612;28;19952;-71
2023/05/30 03:27:49;;;;;;;;;;;;;;;21.97;50.52;98118.03;5038347;28;19926;-71
2023/05/30 03:30:18;;;;;;;;;;;;;;;21.78;50.91;98111.44;5047537;28;19933;-71
2023/05/30 03:32:44;;;;;;;;;;;;;;;21.80;50.99;98115.41;5043502;28;19925;-71
2023/05/30 03:35:11;;;;;;;;;;;;;;;21.82;50.92;98113.16;5041372;28;19948;-71
2023/05/30 03:37:37;;;;;;;;;;;;;;;21.82;51.15;98115.06;5057630;28;19948;-71
2023/05/30 03:40:08;;;;;;;;;;;;;;;21.81;50.94;98117.03;5058820;28;21321;-71
2023/05/30 03:42:35;;;;;;;;;;;;;;;21.82;50.92;98120.50;5038149;28;19925;-71
2023/05/30 03:45:01;;;;;;;;;;;;;;;21.88;51.00;98121.94;5049418;28;19933;-71
2023/05/30 03:47:29;;;;;;;;;;;;;;;21.83;51.12;98119.41;5039017;28;19948;-71
2023/05/30 03:49:55;;;;;;;;;;;;;;;21.82;50.93;98118.59;5038139;28;19925;-72
2023/05/30 03:52:21;;;;;;;;;;;;;;;21.83;51.00;98131.06;5041990;28;19921;-71
2023/05/30 03:54:48;;;;;;;;;;;;;;;21.74;51.16;98126.81;5043722;28;19925;-71
2023/05/30 03:57:14;;;;;;;;;;;;;;;21.72;51.40;98126.34;5039292;28;19926;-71
2023/05/30 03:59:41;;;;;;;;;;;;;;;21.70;51.46;98136.75;5049768;28;19936;-71
2023/05/30 04:02:07;;;;;;;;;;;;;;;21.72;51.39;98140.75;5042662;28;19979;-71
2023/05/30 04:04:35;;;;;;;;;;;;;;;21.69;51.48;98129.75;5042843;28;19925;-71
2023/05/30 04:07:02;;;;;;;;;;;;;;;21.64;51.47;98130.72;5042243;28;19925;-73
2023/05/30 04:09:28;;;;;;;;;;;;;;;21.58;51.65;98126.59;5042169;28;20017;-71
2023/05/30 04:11:55;;;;;;;;;;;;;;;21.55;51.92;98124.53;5042704;28;19926;-71
2023/05/30 04:14:21;;;;;;;;;;;;;;;21.63;51.65;98131.06;5037244;28;20487;-71
2023/05/30 04:16:47;;;;;;;;;;;;;;;21.64;51.70;98122.56;5048436;28;19940;-71
2023/05/30 04:19:14;;;;;;;;;;;;;;;21.67;51.75;98129.25;5038943;28;19933;-71
2023/05/30 04:21:41;;;;;;;;;;;;;;;21.60;51.78;98126.28;5037856;28;20351;-72
2023/05/30 04:24:08;;;;;;;;;;;;;;;20.92;53.28;98128.94;5047471;28;19925;-71
2023/05/30 04:26:36;;;;;;;;;;;;;;;21.07;53.25;98119.47;5056880;28;19925;-71
2023/05/30 04:29:02;;;;;;;;;;;;;;;21.32;52.77;98126.72;5038455;28;19925;-71
2023/05/30 04:31:29;;;;;;;;;;;;;;;21.40;52.54;98134.06;5042269;28;19930;-71
2023/05/30 04:33:55;;;;;;;;;;;;;;;21.42;52.50;98139.94;5044550;28;19940;-71
2023/05/30 04:36:22;;;;;;;;;;;;;;;21.54;52.48;98133.81;5038798;28;20312;-71
2023/05/30 04:38:52;;;;;;;;;;;;;;;21.59;52.32;98149.94;5058755;28;19929;-71
2023/05/30 04:41:20;;;;;;;;;;;;;;;21.53;52.37;98148.53;5039248;28;19921;-71
2023/05/30 04:43:48;;;;;;;;;;;;;;;21.53;52.55;98154.78;5056425;28;19944;-71
2023/05/30 04:46:21;;;;;;;;;;;;;;;21.30;52.80;98149.91;5041802;28;19929;-71
2023/05/30 04:48:48;;;;;;;;;;;;;;;21.38;52.81;98154.53;5037375;28;19929;-71
2023/05/30 04:51:14;;;;;;;;;;;;;;;21.48;52.58;98151.41;5037524;28;19926;-71
2023/05/30 04:53:41;;;;;;;;;;;;;;;21.50;52.59;98155.44;5045990;28;19925;-71
2023/05/30 04:56:09;;;;;;;;;;;;;;;21.54;52.62;98156.34;5038688;28;19925;-71
2023/05/30 04:58:35;;;;;;;;;;;;;;;21.50;52.81;98155.44;5046206;28;19925;-71
2023/05/30 05:01:01;;;;;;;;;;;;;;;21.36;52.94;98149.41;5045541;28;20373;-71
2023/05/30 05:03:28;;;;;;;;;;;;;;;21.20;53.43;98148.34;5043956;28;19927;-71
2023/05/30 05:05:55;;;;;;;;;;;;;;;21.28;53.22;98158.41;5040896;28;19925;-71
2023/05/30 05:08:21;;;;;;;;;;;;;;;21.31;53.24;98152.31;5033005;28;19925;-71
2023/05/30 05:10:48;;;;;;;;;;;;;;;21.42;53.14;98158.97;5056250;28;19925;-71
2023/05/30 05:13:15;;;;;;;;;;;;;;;21.50;53.12;98160.88;5040841;28;19926;-71
2023/05/30 05:15:42;;;;;;;;;;;;;;;21.46;53.35;98162.63;5042042;28;19925;-71
2023/05/30 05:18:10;;;;;;;;;;;;;;;21.41;53.41;98173.69;5039314;28;19921;-71
2023/05/30 05:20:36;;;;;;;;;;;;;;;21.33;53.73;98171.00;5048743;28;19940;-71
2023/05/30 05:23:02;;;;;;;;;;;;;;;20.98;54.71;98171.09;5037549;28;19925;-71
2023/05/30 05:25:29;;;;;;;;;;;;;;;20.94;55.11;98175.59;5037231;28;19936;-71
2023/05/30 05:27:55;;;;;;;;;;;;;;;21.11;54.54;98171.22;5050863;28;19976;-71
2023/05/30 05:30:23;;;;;;;;;;;;;;;21.34;54.17;98169.88;5044981;28;19925;-71
2023/05/30 05:32:50;;;;;;;;;;;;;;;21.42;54.10;98169.84;5038825;28;19925;-71
2023/05/30 05:35:16;;;;;;;;;;;;;;;21.47;54.00;98174.31;5048233;28;19949;-71
2023/05/30 05:37:42;;;;;;;;;;;;;;;21.33;54.42;98166.38;5044250;28;19925;-71
2023/05/30 05:40:10;;;;;;;;;;;;;;;21.53;54.18;98173.78;5042145;28;19925;-71
2023/05/30 05:42:37;;;;;;;;;;;;;;;21.63;53.89;98179.97;5045379;28;20540;-71
2023/05/30 05:45:03;;;;;;;;;;;;;;;21.26;54.02;98170.72;5063250;28;19921;-71
2023/05/30 05:47:31;;;;;;;;;;;;;;;20.84;54.39;98183.28;5040354;28;19925;-71
2023/05/30 05:49:57;;;;;;;;;;;;;;;20.66;55.26;98179.78;5038840;28;19925;-71
2023/05/30 05:52:24;;;;;;;;;;;;;;;21.00;55.34;98184.34;5050501;28;19921;-71
2023/05/30 05:54:50;;;;;;;;;;;;;;;21.23;54.54;98185.72;5040049;28;20319;-71
2023/05/30 05:57:17;;;;;;;;;;;;;;;20.99;55.10;98185.47;5040777;28;19925;-71
2023/05/30 05:59:43;;;;;;;;;;;;;;;20.89;55.34;98183.88;5066742;28;19936;-71
2023/05/30 06:02:10;;;;;;;;;;;;;;;20.48;55.81;98180.94;5035407;28;20317;-71
2023/05/30 06:04:38;;;;;;;;;;;;;;;21.08;55.45;98186.22;5038250;28;19933;-71
2023/05/30 06:07:05;;;;;;;;;;;;;;;21.48;55.07;98184.03;5047481;28;19926;-71
2023/05/30 06:09:33;;;;;;;;;;;;;;;21.43;54.61;98187.75;5060057;28;19936;-71
2023/05/30 06:12:00;;;;;;;;;;;;;;;21.32;55.07;98193.88;5037840;28;19925;-71
2023/05/30 06:14:27;;;;;;;;;;;;;;;21.17;54.34;98189.75;5063625;28;20418;-71
2023/05/30 06:16:53;;;;;;;;;;;;;;;21.04;54.60;98196.16;5039921;28;20036;-71
2023/05/30 06:19:19;;;;;;;;;;;;;;;21.50;54.53;98198.09;5046597;28;19932;-71
2023/05/30 06:21:47;;;;;;;;;;;;;;;21.42;54.21;98201.63;5039606;28;19948;-71
2023/05/30 06:24:14;;;;;;;;;;;;;;;21.37;53.44;98196.41;5046520;28;19929;-71
2023/05/30 06:26:40;;;;;;;;;;;;;;;21.73;54.17;98198.59;5039476;28;19925;-71
2023/05/30 06:29:07;;;;;;;;;;;;;;;21.64;52.51;98200.59;5054354;28;19925;-71
2023/05/30 06:31:33;;;;;;;;;;;;;;;21.43;53.25;98208.69;5046099;28;20383;-71
2023/05/30 06:33:59;;;;;;;;;;;;;;;21.43;54.13;98195.91;5039459;28;19948;-71
2023/05/30 06:36:26;;;;;;;;;;;;;;;21.96;53.83;98206.19;5044122;28;19922;-71
2023/05/30 06:38:54;;;;;;;;;;;;;;;21.82;54.35;98202.06;5044549;28;19930;-71
2023/05/30 06:41:22;;;;;;;;;;;;;;;22.06;54.27;98205.03;5040887;28;19941;-72
2023/05/30 06:43:48;;;;;;;;;;;;;;;22.55;52.82;98204.16;5058091;28;19926;-71
2023/05/30 06:46:15;;;;;;;;;;;;;;;22.11;52.62;98212.97;5042441;28;19926;-71
2023/05/30 06:48:41;;;;;;;;;;;;;;;21.91;53.14;98211.03;5040245;28;19929;-71
2023/05/30 06:51:08;;;;;;;;;;;;;;;21.83;54.37;98211.84;5037697;28;19931;-71
2023/05/30 06:53:35;;;;;;;;;;;;;;;21.74;53.91;98213.81;5064566;28;19921;-71
2023/05/30 06:56:02;;;;;;;;;;;;;;;22.80;53.21;98217.88;5034986;28;19926;-71
2023/05/30 06:58:29;;;;;;;;;;;;;;;22.50;52.14;98204.34;5042921;28;19929;-71
2023/05/30 07:00:55;;;;;;;;;;;;;;;22.28;52.71;98210.13;5046186;28;19925;-71
2023/05/30 07:03:21;;;;;;;;;;;;;;;22.57;53.05;98215.50;5037615;28;19932;-71
2023/05/30 07:05:48;;;;;;;;;;;;;;;22.63;52.31;98205.19;5055908;28;19948;-71
2023/05/30 07:08:14;;;;;;;;;;;;;;;22.73;51.84;98204.81;5046195;28;19945;-71
2023/05/30 07:10:41;;;;;;;;;;;;;;;22.65;52.25;98197.53;5038617;28;19937;-72
2023/05/30 07:13:08;;;;;;;;;;;;;;;22.35;52.69;98202.22;5040973;28;19925;-73
2023/05/30 07:15:35;;;;;;;;;;;;;;;23.03;52.63;98200.00;5050213;28;19921;-71
2023/05/30 07:18:01;;;;;;;;;;;;;;;22.59;52.43;98196.88;5038896;28;19925;-71
2023/05/30 07:20:27;;;;;;;;;;;;;;;22.44;52.92;98193.97;5036928;28;19926;-77
2023/05/30 07:22:54;;;;;;;;;;;;;;;22.13;52.63;98193.63;5044307;28;19926;-71
2023/05/30 07:25:21;;;;;;;;;;;;;;;22.32;53.26;98197.44;5040169;28;19925;-71
2023/05/30 07:27:47;;;;;;;;;;;;;;;22.40;52.74;98198.53;5038278;28;19925;-71
2023/05/30 07:30:15;;;;;;;;;;;;;;;23.17;53.15;98195.06;5047866;28;19925;-71
2023/05/30 07:32:41;;;;;;;;;;;;;;;22.94;51.30;98191.94;5049842;28;19936;-71
2023/05/30 07:35:08;;;;;;;;;;;;;;;22.14;52.38;98190.56;5038819;28;19925;-71
2023/05/30 07:37:35;;;;;;;;;;;;;;;21.97;53.41;98201.56;5037540;28;19929;-71
2023/05/30 07:40:04;;;;;;;;;;;;;;;21.98;54.75;98201.22;5046057;28;19925;-71
2023/05/30 07:42:30;;;;;;;;;;;;;;;22.59;53.83;98201.56;5036437;28;19925;-71
2023/05/30 07:44:57;;;;;;;;;;;;;;;22.47;53.64;98194.13;5047190;28;19926;-71
2023/05/30 07:47:25;;;;;;;;;;;;;;;22.92;52.87;98190.69;5041531;28;19984;-71
2023/05/30 07:49:51;;;;;;;;;;;;;;;22.47;52.41;98188.69;5042675;28;19925;-71
2023/05/30 07:52:17;;;;;;;;;;;;;;;22.98;52.98;98190.16;5041605;28;19925;-71
2023/05/30 07:54:44;;;;;;;;;;;;;;;23.98;51.33;98186.03;5042760;28;19921;-71
2023/05/30 07:57:12;;;;;;;;;;;;;;;23.25;51.23;98185.19;5037797;28;19925;-71
2023/05/30 07:59:39;;;;;;;;;;;;;;;23.43;51.75;98195.56;5058099;28;19971;-71
2023/05/30 08:02:06;;;;;;;;;;;;;;;22.92;51.59;98183.31;5041923;28;19968;-71
2023/05/30 08:04:33;;;;;;;;;;;;;;;22.44;53.16;98189.34;5042499;28;19948;-71
2023/05/30 08:07:02;;;;;;;;;;;;;;;22.52;54.27;98182.25;5042576;28;19929;-71
2023/05/30 08:09:28;;;;;;;;;;;;;;;22.76;54.47;98178.84;5038433;28;19925;-71
2023/05/30 08:11:54;;;;;;;;;;;;;;;23.00;53.63;98187.06;5057143;28;19948;-71
2023/05/30 08:14:21;;;;;;;;;;;;;;;22.85;53.03;98187.72;5044071;28;19953;-71
2023/05/30 08:16:47;;;;;;;;;;;;;;;23.01;52.93;98181.28;5037845;28;19929;-71
2023/05/30 08:19:14;;;;;;;;;;;;;;;22.93;53.35;98184.13;5046586;28;19925;-71
2023/05/30 08:21:43;;;;;;;;;;;;;;;23.43;52.75;98192.84;5042779;28;19936;-71
2023/05/30 08:24:11;;;;;;;;;;;;;;;23.00;52.18;98187.88;5041968;28;19937;-71
2023/05/30 08:26:39;;;;;;;;;;;;;;;22.57;52.67;98193.72;5044623;28;19949;-71
2023/05/30 08:29:06;;;;;;;;;;;;;;;22.33;53.81;98199.03;5053611;28;19925;-71
2023/05/30 08:31:33;;;;;;;;;;;;;;;22.05;53.57;98197.97;5045248;28;19983;-71
2023/05/30 08:34:02;;;;;;;;;;;;;;;22.12;54.12;98198.25;5036254;28;19930;-71
2023/05/30 08:36:28;;;;;;;;;;;;;;;22.29;54.82;98198.13;5043045;28;20021;-71
2023/05/30 08:38:56;;;;;;;;;;;;;;;22.44;54.67;98189.34;5044773;28;19933;-71
2023/05/30 08:41:23;;;;;;;;;;;;;;;23.22;52.65;98194.84;5040707;28;19926;-71
2023/05/30 08:43:50;;;;;;;;;;;;;;;23.59;51.59;98190.25;5062870;28;19925;-71
2023/05/30 08:46:17;;;;;;;;;;;;;;;23.04;52.39;98186.06;5048102;28;20863;-71
2023/05/30 08:48:43;;;;;;;;;;;;;;;22.84;53.43;98192.34;5045360;28;19940;-71
2023/05/30 08:51:12;;;;;;;;;;;;;;;22.79;53.11;98183.63;5041048;28;19925;-71
2023/05/30 08:53:42;;;;;;;;;;;;;;;22.45;52.61;98196.38;5042509;28;19937;-71
2023/05/30 08:56:12;;;;;;;;;;;;;;;22.53;53.48;98198.22;5041956;28;19926;-71
2023/05/30 08:58:40;;;;;;;;;;;;;;;22.44;53.01;98202.94;5039173;28;19948;-71
2023/05/30 09:01:07;;;;;;;;;;;;;;;22.85;53.11;98198.59;5047061;28;19945;-71
2023/05/30 09:03:35;;;;;;;;;;;;;;;23.12;53.96;98200.72;5045692;28;19921;-71
2023/05/30 09:06:01;;;;;;;;;;;;;;;23.43;52.10;98206.47;5060201;28;19933;-71
2023/05/30 09:08:28;;;;;;;;;;;;;;;23.04;51.99;98207.06;5045217;28;19952;-71
2023/05/30 09:10:55;;;;;;;;;;;;;;;22.66;52.85;98209.19;5040778;28;19925;-71
2023/05/30 09:13:23;;;;;;;;;;;;;;;22.70;52.28;98205.47;5049416;28;19948;-72
2023/05/30 09:15:49;;;;;;;;;;;;;;;23.28;52.94;98214.47;5046650;28;19932;-71
2023/05/30 09:18:17;;;;;;;;;;;;;;;23.67;53.00;98209.19;5042525;28;19953;-71
2023/05/30 09:20:43;;;;;;;;;;;;;;;23.25;51.33;98207.78;5046040;28;19928;-72
2023/05/30 09:23:10;;;;;;;;;;;;;;;22.87;51.84;98201.81;5050873;28;19936;-73
2023/05/30 09:25:43;;;;;;;;;;;;;;;23.10;52.84;98213.88;5044206;28;19929;-73
2023/05/30 09:28:10;;;;;;;;;;;;;;;23.23;52.47;98207.34;5042234;28;20254;-74
2023/05/30 09:30:52;;;;;;;;;;;;;;;23.95;52.18;98206.56;5045660;28;19936;-73
2023/05/30 09:33:18;;;;;;;;;;;;;;;23.37;51.61;98210.53;5043787;28;19929;-71
2023/05/30 09:35:45;;;;;;;;;;;;;;;23.34;52.57;98207.69;5045128;28;19925;-71
2023/05/30 09:38:15;;;;;;;;;;;;;;;23.42;53.16;98210.34;5041160;28;19932;-71
2023/05/30 09:40:41;;;;;;;;;;;;;;;23.83;52.16;98205.81;5051976;28;19936;-71
2023/05/30 09:43:08;;;;;;;;;;;;;;;24.51;50.36;98210.22;5041454;28;19925;-71
2023/05/30 09:45:34;;;;;;;;;;;;;;;23.93;50.55;98213.50;5047651;28;19936;-71
2023/05/30 09:48:03;;;;;;;;;;;;;;;23.69;51.53;98208.88;5044445;28;19926;-72
2023/05/30 09:50:30;;;;;;;;;;;;;;;24.00;50.56;98219.19;5043746;28;19937;-72
2023/05/30 09:52:56;;;;;;;;;;;;;;;24.15;48.85;98218.53;5038330;28;19925;-71
2023/05/30 09:55:24;;;;;;;;;;;;;;;23.67;49.46;98220.13;5039710;28;19925;-71
2023/05/30 09:57:52;;;;;;;;;;;;;;;24.11;49.67;98220.34;5050266;28;19925;-72
2023/05/30 10:00:23;;;;;;;;;;;;;;;24.48;49.03;98216.38;5045038;28;19948;-72
2023/05/30 10:02:53;;;;;;;;;;;;;;;24.25;48.24;98218.06;5047058;28;19925;-71
2023/05/30 10:05:22;;;;;;;;;;;;;;;24.51;48.53;98225.84;5041550;28;19929;-71
2023/05/30 10:07:49;;;;;;;;;;;;;;;24.57;48.09;98214.31;5050219;28;19925;-71
2023/05/30 10:10:16;;;;;;;;;;;;;;;24.61;48.96;98215.22;5042022;28;19936;-72
2023/05/30 10:12:42;;;;;;;;;;;;;;;24.26;49.70;98224.31;5050557;28;19936;-72
2023/05/30 10:15:09;;;;;;;;;;;;;;;24.61;48.81;98220.66;5041252;28;19924;-72
2023/05/30 10:17:37;;;;;;;;;;;;;;;24.43;49.37;98219.38;5039509;28;19991;-71
2023/05/30 10:20:06;;;;;;;;;;;;;;;24.14;49.04;98222.38;5066778;28;19921;-72
2023/05/30 10:22:40;;;;;;;;;;;;;;;24.22;49.67;98215.22;5058066;28;19922;-72
2023/05/30 10:25:08;;;;;;;;;;;;;;;24.56;49.26;98212.72;5036643;28;19921;-71
2023/05/30 10:27:35;;;;;;;;;;;;;;;24.57;48.94;98208.84;5042223;28;19925;-71
2023/05/30 10:30:04;;;;;;;;;;;;;;;24.70;48.46;98213.13;5043350;28;19925;-71
2023/05/30 10:32:32;;;;;;;;;;;;;;;24.47;48.84;98203.91;5043856;28;19932;-72
2023/05/30 10:35:01;;;;;;;;;;;;;;;23.89;49.69;98204.44;5038954;28;19960;-71
2023/05/30 10:37:28;;;;;;;;;;;;;;;23.94;50.07;98215.13;5048788;28;19948;-71
2023/05/30 10:40:06;;;;;;;;;;;;;;;24.37;49.08;98207.09;5039014;28;19925;-71
2023/05/30 10:42:37;;;;;;;;;;;;;;;24.35;48.63;98205.88;5046225;28;19926;-72
2023/05/30 10:45:11;;;;;;;;;;;;;;;24.18;48.99;98206.91;5058213;28;20028;-71
2023/05/30 10:47:42;;;;;;;;;;;;;;;24.60;49.02;98208.16;5059503;28;19936;-71
2023/05/30 10:50:14;;;;;;;;;;;;;;;24.77;48.26;98207.06;5043025;28;19925;-71
2023/05/30 10:52:40;;;;;;;;;;;;;;;24.52;48.14;98197.38;5045156;28;20040;-71
2023/05/30 10:55:09;;;;;;;;;;;;;;;24.14;49.93;98197.81;5047775;28;19925;-71
2023/05/30 10:57:35;;;;;;;;;;;;;;;24.06;49.29;98199.53;5038383;28;19922;-71
2023/05/30 11:00:16;;;;;;;;;;;;;;;24.26;50.01;98189.63;5051588;28;19925;-71
2023/05/30 11:02:43;;;;;;;;;;;;;;;24.34;48.65;98193.34;5042903;28;19925;-71
2023/05/30 11:05:11;;;;;;;;;;;;;;;24.54;48.29;98186.94;5047625;28;19929;-72
2023/05/30 11:07:38;;;;;;;;;;;;;;;24.45;46.92;98187.03;5037899;28;19925;-71
2023/05/30 11:10:05;;;;;;;;;;;;;;;24.04;48.28;98190.91;5042179;28;19921;-71
2023/05/30 11:12:33;;;;;;;;;;;;;;;23.67;48.55;98180.38;5066130;28;19952;-70
2023/05/30 11:15:00;;;;;;;;;;;;;;;23.70;49.62;98174.22;5059004;28;19996;-71
2023/05/30 11:17:31;;;;;;;;;;;;;;;23.70;50.06;98180.47;5036609;28;19926;-71
2023/05/30 11:20:06;;;;;;;;;;;;;;;23.63;48.41;98181.06;5047698;28;19925;-71
2023/05/30 11:22:33;;;;;;;;;;;;;;;23.59;49.72;98177.41;5043467;28;19954;-71
2023/05/30 11:25:14;;;;;;;;;;;;;;;23.70;49.24;98174.22;5041854;28;19932;-71
2023/05/30 11:28:00;;;;;;;;;;;;;;;23.65;48.17;98169.78;5041843;28;19948;-71
2023/05/30 11:30:26;;;;;;;;;;;;;;;23.72;48.73;98166.50;5043514;28;19925;-71
2023/05/30 11:32:56;;;;;;;;;;;;;;;23.89;49.12;98171.72;5045001;28;19933;-71
2023/05/30 11:35:23;;;;;;;;;;;;;;;24.31;49.57;98156.63;5039835;28;19925;-71
2023/05/30 11:37:50;;;;;;;;;;;;;;;24.24;48.40;98158.34;5041050;28;19936;-71
2023/05/30 11:40:16;;;;;;;;;;;;;;;23.99;47.73;98154.84;5062328;28;19929;-71
2023/05/30 11:42:43;;;;;;;;;;;;;;;24.24;48.91;98161.88;5038219;28;19948;-72
2023/05/30 11:45:11;;;;;;;;;;;;;;;24.46;48.17;98168.72;5040477;28;19925;-72
2023/05/30 11:47:43;;;;;;;;;;;;;;;24.63;47.50;98155.56;5049748;28;19933;-71
2023/05/30 11:50:09;;;;;;;;;;;;;;;24.79;46.12;98149.38;5039587;28;19932;-71
2023/05/30 11:52:37;;;;;;;;;;;;;;;24.58;46.54;98153.09;5045057;28;19933;-71
2023/05/30 11:55:04;;;;;;;;;;;;;;;24.41;46.50;98147.94;5041765;28;19926;-71
2023/05/30 11:57:31;;;;;;;;;;;;;;;24.36;47.14;98161.03;5045557;28;19933;-71
2023/05/30 11:59:58;;;;;;;;;;;;;;;24.37;47.33;98157.16;5042896;28;19938;-71
2023/05/30 12:02:28;;;;;;;;;;;;;;;24.07;47.38;98152.00;5041120;28;19925;-71
2023/05/30 12:04:59;;;;;;;;;;;;;;;24.11;46.87;98163.03;5037672;28;19925;-70
2023/05/30 12:07:25;;;;;;;;;;;;;;;24.09;45.77;98149.72;5040127;28;19925;-71
2023/05/30 12:09:52;;;;;;;;;;;;;;;24.22;46.45;98153.25;5042750;28;19925;-71
2023/05/30 12:12:18;;;;;;;;;;;;;;;24.47;47.49;98152.03;5039947;28;19921;-71
2023/05/30 12:14:59;;;;;;;;;;;;;;;24.40;46.73;98151.00;5050981;28;19925;-79
2023/05/30 12:17:26;;;;;;;;;;;;;;;24.33;47.09;98154.34;5040905;28;20636;-71
2023/05/30 12:19:55;;;;;;;;;;;;;;;24.28;47.39;98151.84;5037792;28;19933;-71
2023/05/30 12:22:23;;;;;;;;;;;;;;;24.31;47.60;98145.72;5039425;28;19937;-71
2023/05/30 12:24:50;;;;;;;;;;;;;;;24.28;46.91;98146.41;5042695;28;19932;-71
2023/05/30 12:27:17;;;;;;;;;;;;;;;24.35;47.59;98146.59;5042537;28;19925;-71
2023/05/30 12:29:43;;;;;;;;;;;;;;;24.42;47.35;98152.25;5044416;28;19936;-71
2023/05/30 12:32:10;;;;;;;;;;;;;;;24.48;46.83;98147.34;5040276;28;19932;-71
2023/05/30 12:34:37;;;;;;;;;;;;;;;24.54;46.22;98145.97;5042434;28;20342;-71
2023/05/30 12:37:07;;;;;;;;;;;;;;;24.64;47.18;98139.97;5043896;28;19925;-71
2023/05/30 12:39:34;;;;;;;;;;;;;;;24.65;46.65;98141.56;5046334;28;19925;-71
2023/05/30 12:42:06;;;;;;;;;;;;;;;24.75;47.30;98143.81;5046406;28;19926;-71
2023/05/30 12:44:32;;;;;;;;;;;;;;;24.95;46.68;98133.78;5046013;28;19926;-71
2023/05/30 12:47:01;;;;;;;;;;;;;;;24.88;45.67;98128.19;5043386;28;19926;-71
2023/05/30 12:49:28;;;;;;;;;;;;;;;24.95;45.42;98139.25;5045128;28;20259;-71